Time;durP1;ratioP1;P1;durP2;ratioP2;P2;SDS_P1;SDS_P2;PMS_P1;PMS_P2;Temp;Humidity;BMP_temperature;BMP_pressure;BME280_temperature;BME280_humidity;BME280_pressure;Samples;Min_cycle;Max_cycle;Signal;HPM_P1;HPM_P2
2023/08/29 00:02:03;;;;;;;11.32;4.28;;;;;;;;;;4872895;29;20049;-78
2023/08/29 00:04:33;;;;;;;15.13;5.38;;;;;;;;;;4888914;29;20048;-78
2023/08/29 00:07:03;;;;;;;16.48;5.10;;;;;;;;;;4889096;29;20052;-79
2023/08/29 00:09:35;;;;;;;14.55;6.25;;;;;;;;;;4887893;29;20045;-79
2023/08/29 00:12:07;;;;;;;15.63;5.97;;;;;;;;;;4875357;29;20060;-78
2023/08/29 00:14:37;;;;;;;19.35;6.15;;;;;;;;;;4887420;29;20056;-78
2023/08/29 00:17:08;;;;;;;15.23;5.47;;;;;;;;;;4884105;29;20131;-78
2023/08/29 00:19:42;;;;;;;16.75;5.97;;;;;;;;;;4875562;29;20060;-79
2023/08/29 00:22:12;;;;;;;13.10;5.80;;;;;;;;;;4892646;29;20040;-77
2023/08/29 00:24:45;;;;;;;13.27;6.00;;;;;;;;;;4885227;29;20044;-78
2023/08/29 00:27:19;;;;;;;10.65;5.15;;;;;;;;;;4878302;29;20041;-79
2023/08/29 00:29:50;;;;;;;14.30;5.38;;;;;;;;;;4863863;29;20083;-79
2023/08/29 00:32:24;;;;;;;11.35;5.30;;;;;;;;;;4866020;29;20057;-78
2023/08/29 00:34:54;;;;;;;17.67;5.18;;;;;;;;;;4900137;29;20029;-77
2023/08/29 00:37:25;;;;;;;13.85;4.82;;;;;;;;;;4895964;29;20037;-76
2023/08/29 00:39:57;;;;;;;16.80;6.05;;;;;;;;;;4907214;29;20047;-77
2023/08/29 00:42:29;;;;;;;13.82;5.30;;;;;;;;;;4878251;29;20111;-79
2023/08/29 00:44:59;;;;;;;12.48;5.15;;;;;;;;;;4880441;29;20052;-79
2023/08/29 00:47:34;;;;;;;17.98;5.38;;;;;;;;;;4898377;29;20052;-79
2023/08/29 00:50:08;;;;;;;15.88;5.30;;;;;;;;;;4912549;29;20064;-79
2023/08/29 00:52:39;;;;;;;13.13;5.20;;;;;;;;;;4881328;29;20056;-79
2023/08/29 00:55:10;;;;;;;13.40;5.40;;;;;;;;;;4880944;29;20053;-79
2023/08/29 00:57:41;;;;;;;12.68;4.82;;;;;;;;;;4865649;29;20072;-78
2023/08/29 01:00:14;;;;;;;19.33;5.45;;;;;;;;;;4881120;29;20057;-79
2023/08/29 01:02:49;;;;;;;13.45;4.53;;;;;;;;;;4912167;29;20056;-79
2023/08/29 01:05:23;;;;;;;9.73;4.40;;;;;;;;;;4895354;29;20531;-78
2023/08/29 01:07:59;;;;;;;19.63;5.78;;;;;;;;;;4892917;29;20067;-79
2023/08/29 01:11:07;;;;;;;13.85;4.93;;;;;;;;;;4897966;29;20056;-79
2023/08/29 01:13:45;;;;;;;;;;;;;;;;;;4889328;29;20455;-78
2023/08/29 01:16:24;;;;;;;11.93;4.93;;;;;;;;;;4871211;29;19931;-79
2023/08/29 01:18:59;;;;;;;13.38;4.53;;;;;;;;;;4888349;29;20623;-78
2023/08/29 01:21:45;;;;;;;11.35;4.72;;;;;;;;;;4887678;29;20045;-77
2023/08/29 01:24:40;;;;;;;11.50;4.10;;;;;;;;;;4871622;29;20056;-78
2023/08/29 01:27:13;;;;;;;12.15;4.80;;;;;;;;;;4871515;29;20052;-78
2023/08/29 01:29:47;;;;;;;14.43;5.05;;;;;;;;;;4887404;29;20053;-78
2023/08/29 01:32:18;;;;;;;17.63;5.10;;;;;;;;;;4886721;29;20040;-79
2023/08/29 01:34:50;;;;;;;12.32;4.78;;;;;;;;;;4885117;29;20055;-78
2023/08/29 01:37:22;;;;;;;17.30;4.85;;;;;;;;;;4900778;29;20060;-79
2023/08/29 01:39:55;;;;;;;13.30;4.82;;;;;;;;;;4886166;29;20045;-78
2023/08/29 01:42:27;;;;;;;13.65;4.88;;;;;;;;;;4890129;29;20132;-78
2023/08/29 01:45:07;;;;;;;12.93;4.75;;;;;;;;;;4868103;29;20049;-78
2023/08/29 01:47:37;;;;;;;14.00;5.05;;;;;;;;;;4867033;29;20053;-78
2023/08/29 01:50:09;;;;;;;15.05;5.15;;;;;;;;;;4854496;29;20436;-79
2023/08/29 01:52:41;;;;;;;18.58;4.88;;;;;;;;;;4851623;29;20056;-79
2023/08/29 01:55:15;;;;;;;12.68;5.50;;;;;;;;;;4867568;29;20053;-79
2023/08/29 01:57:48;;;;;;;16.85;5.25;;;;;;;;;;4867162;29;20063;-78
2023/08/29 02:00:21;;;;;;;13.35;5.03;;;;;;;;;;4853690;29;20053;-77
2023/08/29 02:02:55;;;;;;;24.83;5.47;;;;;;;;;;4865613;29;20045;-77
2023/08/29 02:05:26;;;;;;;19.73;5.30;;;;;;;;;;4865989;29;20166;-78
2023/08/29 02:07:56;;;;;;;20.13;6.10;;;;;;;;;;4849677;29;20049;-78
2023/08/29 02:10:32;;;;;;;17.60;5.82;;;;;;;;;;4850321;29;20048;-77
2023/08/29 02:13:03;;;;;;;21.42;5.68;;;;;;;;;;4867056;29;20049;-78
2023/08/29 02:15:37;;;;;;;18.90;5.97;;;;;;;;;;4866899;29;20056;-78
2023/08/29 02:18:08;;;;;;;12.35;5.68;;;;;;;;;;4850333;29;20049;-78
2023/08/29 02:20:42;;;;;;;15.43;5.85;;;;;;;;;;4865933;29;20053;-78
2023/08/29 02:23:13;;;;;;;14.50;5.80;;;;;;;;;;4867555;29;20485;-79
2023/08/29 02:25:43;;;;;;;20.15;5.78;;;;;;;;;;4875131;29;20509;-78
2023/08/29 02:28:14;;;;;;;14.43;5.32;;;;;;;;;;4874788;29;20053;-78
2023/08/29 02:30:45;;;;;;;20.30;6.32;;;;;;;;;;4876022;29;20065;-78
2023/08/29 02:33:17;;;;;;;15.38;5.68;;;;;;;;;;4878062;29;20071;-78
2023/08/29 02:35:48;;;;;;;14.63;5.88;;;;;;;;;;4874194;29;20170;-78
2023/08/29 02:38:18;;;;;;;17.77;6.50;;;;;;;;;;4863238;29;20396;-76
2023/08/29 02:40:50;;;;;;;30.58;7.03;;;;;;;;;;4876902;29;20049;-77
2023/08/29 02:43:28;;;;;;;32.95;6.22;;;;;;;;;;4887946;29;20040;-77
2023/08/29 02:46:02;;;;;;;17.67;5.93;;;;;;;;;;4873199;29;20052;-77
2023/08/29 02:48:36;;;;;;;16.92;5.95;;;;;;;;;;4886393;29;20056;-79
2023/08/29 02:51:08;;;;;;;14.70;6.13;;;;;;;;;;4872405;29;20405;-77
2023/08/29 02:53:41;;;;;;;14.60;5.95;;;;;;;;;;4889684;29;20531;-77
2023/08/29 02:56:12;;;;;;;19.25;5.93;;;;;;;;;;4891154;29;20044;-77
2023/08/29 02:58:42;;;;;;;18.52;6.07;;;;;;;;;;4881174;29;20049;-78
2023/08/29 03:01:13;;;;;;;19.60;5.70;;;;;;;;;;4891390;29;20041;-79
2023/08/29 03:03:45;;;;;;;17.98;6.32;;;;;;;;;;4890001;29;20045;-78
2023/08/29 03:06:18;;;;;;;16.10;5.80;;;;;;;;;;4889454;29;20052;-77
2023/08/29 03:08:48;;;;;;;16.08;5.97;;;;;;;;;;4882243;29;20055;-78
2023/08/29 03:11:22;;;;;;;16.77;5.80;;;;;;;;;;4879804;29;20496;-79
2023/08/29 03:13:53;;;;;;;18.92;6.20;;;;;;;;;;4879763;29;20057;-79
2023/08/29 03:16:24;;;;;;;17.23;5.63;;;;;;;;;;4880014;29;20060;-79
2023/08/29 03:18:55;;;;;;;11.13;5.03;;;;;;;;;;4884314;29;20689;-78
2023/08/29 03:21:28;;;;;;;13.32;6.00;;;;;;;;;;4872610;29;20048;-78
2023/08/29 03:24:05;;;;;;;14.25;5.35;;;;;;;;;;4882115;29;20068;-78
2023/08/29 03:26:39;;;;;;;14.63;5.68;;;;;;;;;;4865205;29;20076;-79
2023/08/29 03:29:09;;;;;;;17.65;5.10;;;;;;;;;;4864395;29;20061;-78
2023/08/29 03:31:42;;;;;;;14.88;5.72;;;;;;;;;;4865143;29;20056;-79
2023/08/29 03:34:14;;;;;;;15.38;5.10;;;;;;;;;;4865008;29;20049;-77
2023/08/29 03:36:45;;;;;;;15.73;4.93;;;;;;;;;;4864849;29;20049;-79
2023/08/29 03:39:15;;;;;;;18.77;6.00;;;;;;;;;;4864974;29;20493;-78
2023/08/29 03:41:47;;;;;;;12.48;5.53;;;;;;;;;;4865057;29;20053;-79
2023/08/29 03:44:18;;;;;;;11.18;5.03;;;;;;;;;;4882352;29;20053;-78
2023/08/29 03:46:52;;;;;;;14.30;5.00;;;;;;;;;;4882002;29;20369;-78
2023/08/29 03:49:26;;;;;;;12.15;4.63;;;;;;;;;;4882251;29;20045;-78
2023/08/29 03:52:03;;;;;;;13.73;4.40;;;;;;;;;;4865211;29;20049;-78
2023/08/29 03:54:37;;;;;;;10.30;4.55;;;;;;;;;;4865095;29;20405;-78
2023/08/29 03:57:07;;;;;;;12.75;5.05;;;;;;;;;;4881614;29;20049;-78
2023/08/29 03:59:37;;;;;;;10.35;4.78;;;;;;;;;;4864450;29;20056;-79
2023/08/29 04:02:08;;;;;;;10.52;4.13;;;;;;;;;;4864409;29;20056;-79
2023/08/29 04:04:39;;;;;;;11.43;4.50;;;;;;;;;;4880512;29;20151;-78
2023/08/29 04:07:16;;;;;;;10.40;4.57;;;;;;;;;;4864434;29;20077;-78
2023/08/29 04:09:49;;;;;;;11.65;4.70;;;;;;;;;;4864769;29;20053;-78
2023/08/29 04:12:19;;;;;;;13.73;4.88;;;;;;;;;;4881567;29;20504;-79
2023/08/29 04:14:50;;;;;;;9.82;4.60;;;;;;;;;;4864399;29;20501;-78
2023/08/29 04:17:22;;;;;;;;;;;;;;;;;;4882186;29;20494;-79
2023/08/29 04:19:52;;;;;;;11.05;4.38;;;;;;;;;;4881804;29;19931;-79
2023/08/29 04:22:22;;;;;;;10.15;4.50;;;;;;;;;;4881215;29;20049;-79
2023/08/29 04:24:56;;;;;;;10.75;4.25;;;;;;;;;;4880967;29;20049;-78
2023/08/29 04:27:53;;;;;;;10.05;3.97;;;;;;;;;;4881336;29;20049;-79
2023/08/29 04:30:24;;;;;;;11.07;3.85;;;;;;;;;;4881532;29;20060;-78
2023/08/29 04:32:54;;;;;;;9.65;4.57;;;;;;;;;;4864688;29;20061;-79
2023/08/29 04:35:24;;;;;;;10.25;3.90;;;;;;;;;;4881115;29;20045;-79
2023/08/29 04:37:56;;;;;;;8.88;3.88;;;;;;;;;;4863678;29;20049;-78
2023/08/29 04:40:30;;;;;;;8.55;3.58;;;;;;;;;;4881032;29;20048;-79
2023/08/29 04:43:00;;;;;;;9.02;3.80;;;;;;;;;;4864019;29;20546;-80
2023/08/29 04:45:32;;;;;;;9.95;3.88;;;;;;;;;;4881209;29;20045;-79
2023/08/29 04:48:07;;;;;;;7.35;3.63;;;;;;;;;;4881210;29;20045;-78
2023/08/29 04:50:39;;;;;;;10.07;4.20;;;;;;;;;;4880982;29;20056;-78
2023/08/29 04:53:11;;;;;;;12.32;3.65;;;;;;;;;;4866054;29;20171;-78
2023/08/29 04:55:41;;;;;;;8.73;3.58;;;;;;;;;;4885181;29;20497;-78
2023/08/29 04:58:13;;;;;;;139.98;50.95;;;;;;;;;;4869005;29;20057;-77
2023/08/29 05:00:50;;;;;;;50.13;15.15;;;;;;;;;;4887959;29;20045;-75
2023/08/29 05:03:21;;;;;;;19.13;7.68;;;;;;;;;;4888352;29;20045;-77
2023/08/29 05:05:52;;;;;;;20.77;5.63;;;;;;;;;;4871443;29;20060;-78
2023/08/29 05:08:23;;;;;;;15.27;5.28;;;;;;;;;;4864704;29;20049;-78
2023/08/29 05:10:56;;;;;;;11.30;4.00;;;;;;;;;;4863569;29;20060;-78
2023/08/29 05:13:31;;;;;;;7.82;3.65;;;;;;;;;;4880516;29;20049;-78
2023/08/29 05:16:00;;;;;;;12.32;4.05;;;;;;;;;;4880278;29;20049;-78
2023/08/29 05:18:33;;;;;;;12.20;4.03;;;;;;;;;;4863379;29;20053;-78
2023/08/29 05:21:06;;;;;;;8.98;3.70;;;;;;;;;;4863265;29;20060;-78
2023/08/29 05:23:38;;;;;;;10.73;3.50;;;;;;;;;;4863170;29;20401;-78
2023/08/29 05:26:08;;;;;;;10.13;3.63;;;;;;;;;;4880470;29;20057;-78
2023/08/29 05:28:43;;;;;;;9.68;3.67;;;;;;;;;;4879962;29;20053;-78
2023/08/29 05:31:15;;;;;;;11.05;3.40;;;;;;;;;;4881356;29;20477;-79
2023/08/29 05:33:48;;;;;;;7.47;3.60;;;;;;;;;;4899289;29;20460;-79
2023/08/29 05:36:18;;;;;;;8.70;3.50;;;;;;;;;;4898520;29;20051;-78
2023/08/29 05:38:50;;;;;;;11.05;3.55;;;;;;;;;;4898780;29;20053;-79
2023/08/29 05:41:21;;;;;;;7.13;3.05;;;;;;;;;;4881192;29;20060;-78
2023/08/29 05:43:53;;;;;;;;;;;;;;;;;;4899184;29;20053;-78
2023/08/29 05:46:22;;;;;;;13.30;4.13;;;;;;;;;;4899194;29;19927;-79
2023/08/29 05:48:53;;;;;;;10.82;3.80;;;;;;;;;;4898700;29;20052;-79
2023/08/29 05:51:25;;;;;;;9.52;3.75;;;;;;;;;;4898632;29;20048;-79
2023/08/29 05:54:00;;;;;;;10.25;3.15;;;;;;;;;;4896660;29;20052;-78
2023/08/29 05:56:31;;;;;;;10.68;3.67;;;;;;;;;;4881201;29;20057;-78
2023/08/29 05:59:01;;;;;;;8.27;4.35;;;;;;;;;;4882093;29;20059;-78
2023/08/29 06:01:35;;;;;;;7.10;3.53;;;;;;;;;;4881247;29;20408;-78
2023/08/29 06:04:07;;;;;;;8.93;3.67;;;;;;;;;;4898161;29;20484;-79
2023/08/29 06:06:43;;;;;;;10.77;3.30;;;;;;;;;;4882867;29;20057;-80
2023/08/29 06:09:17;;;;;;;9.85;3.75;;;;;;;;;;4898586;29;20051;-79
2023/08/29 06:11:48;;;;;;;7.57;3.47;;;;;;;;;;4898788;29;20048;-79
2023/08/29 06:14:19;;;;;;;7.50;3.58;;;;;;;;;;4896497;29;20056;-79
2023/08/29 06:16:49;;;;;;;9.07;3.60;;;;;;;;;;4898557;29;20052;-79
2023/08/29 06:19:20;;;;;;;9.30;3.40;;;;;;;;;;4898587;29;20048;-79
2023/08/29 06:21:51;;;;;;;7.80;3.17;;;;;;;;;;4897793;29;20495;-79
2023/08/29 06:24:24;;;;;;;7.43;3.28;;;;;;;;;;4897903;29;20051;-79
2023/08/29 06:26:56;;;;;;;9.43;3.70;;;;;;;;;;4882218;29;20060;-79
2023/08/29 06:29:26;;;;;;;9.27;3.47;;;;;;;;;;4897302;29;20056;-79
2023/08/29 06:31:58;;;;;;;7.57;3.33;;;;;;;;;;4897863;29;20048;-79
2023/08/29 06:34:30;;;;;;;10.75;3.63;;;;;;;;;;4898087;29;20052;-79
2023/08/29 06:37:02;;;;;;;9.30;3.35;;;;;;;;;;4896191;29;20519;-79
2023/08/29 06:39:32;;;;;;;8.25;3.67;;;;;;;;;;4881485;29;20061;-78
2023/08/29 06:42:05;;;;;;;8.57;3.33;;;;;;;;;;4897812;29;20045;-79
2023/08/29 06:44:37;;;;;;;9.23;4.03;;;;;;;;;;4896156;29;20049;-78
2023/08/29 06:47:08;;;;;;;6.78;3.03;;;;;;;;;;4897683;29;20053;-79
2023/08/29 06:49:38;;;;;;;17.02;5.05;;;;;;;;;;4880440;29;20049;-78
2023/08/29 06:52:14;;;;;;;10.85;3.95;;;;;;;;;;4898031;29;20519;-79
2023/08/29 06:54:46;;;;;;;8.15;3.45;;;;;;;;;;4897357;29;20493;-79
2023/08/29 06:57:17;;;;;;;7.75;3.50;;;;;;;;;;4897958;29;20076;-79
2023/08/29 06:59:47;;;;;;;7.50;2.83;;;;;;;;;;4898007;29;20080;-79
2023/08/29 07:02:18;;;;;;;7.90;3.15;;;;;;;;;;4897755;29;20480;-79
2023/08/29 07:04:48;;;;;;;11.00;3.50;;;;;;;;;;4897560;29;20049;-79
2023/08/29 07:07:22;;;;;;;22.00;7.38;;;;;;;;;;4897292;29;20053;-79
2023/08/29 07:09:53;;;;;;;8.23;3.72;;;;;;;;;;4897938;29;20048;-79
2023/08/29 07:12:23;;;;;;;11.15;4.22;;;;;;;;;;4898125;29;20056;-79
2023/08/29 07:14:54;;;;;;;9.95;4.20;;;;;;;;;;4880091;29;20053;-78
2023/08/29 07:17:25;;;;;;;24.00;6.80;;;;;;;;;;4897699;29;20048;-79
2023/08/29 07:19:57;;;;;;;20.52;6.95;;;;;;;;;;4881707;29;20052;-79
2023/08/29 07:22:27;;;;;;;18.48;6.13;;;;;;;;;;4897646;29;20048;-80
2023/08/29 07:24:57;;;;;;;20.95;6.30;;;;;;;;;;4881377;29;20052;-79
2023/08/29 07:27:29;;;;;;;14.63;4.68;;;;;;;;;;4897682;29;20397;-79
2023/08/29 07:30:04;;;;;;;20.90;6.65;;;;;;;;;;4897310;29;20053;-79
2023/08/29 07:32:34;;;;;;;9.75;3.95;;;;;;;;;;4880637;29;20396;-79
2023/08/29 07:35:04;;;;;;;8.95;3.70;;;;;;;;;;4897435;29;20045;-78
2023/08/29 07:37:39;;;;;;;10.85;3.95;;;;;;;;;;4895588;29;20053;-79
2023/08/29 07:40:10;;;;;;;15.27;6.10;;;;;;;;;;4898511;29;20488;-79
2023/08/29 07:42:42;;;;;;;11.40;4.20;;;;;;;;;;4900879;29;20041;-79
2023/08/29 07:45:12;;;;;;;9.27;4.18;;;;;;;;;;4883119;29;20063;-80
2023/08/29 07:47:42;;;;;;;8.50;3.38;;;;;;;;;;4898962;29;20064;-79
2023/08/29 07:50:13;;;;;;;7.97;3.08;;;;;;;;;;4900543;29;20044;-78
2023/08/29 07:52:45;;;;;;;7.03;3.13;;;;;;;;;;4901026;29;20049;-79
2023/08/29 07:55:18;;;;;;;9.80;3.30;;;;;;;;;;4900107;29;20056;-79
2023/08/29 07:57:50;;;;;;;8.95;2.80;;;;;;;;;;4900707;29;20045;-78
2023/08/29 08:00:21;;;;;;;6.53;2.53;;;;;;;;;;4883389;29;20419;-79
2023/08/29 08:02:55;;;;;;;;;;;;;;;;;;4884026;29;20055;-78
2023/08/29 08:05:27;;;;;;;7.32;2.92;;;;;;;;;;4883953;29;19923;-78
2023/08/29 08:08:00;;;;;;;7.32;3.13;;;;;;;;;;4900469;29;20052;-78
2023/08/29 08:10:33;;;;;;;8.63;3.35;;;;;;;;;;4884817;29;20052;-78
2023/08/29 08:13:07;;;;;;;8.52;3.08;;;;;;;;;;4900204;29;20052;-78
2023/08/29 08:15:39;;;;;;;6.10;2.58;;;;;;;;;;4900348;29;20480;-78
2023/08/29 08:18:09;;;;;;;7.57;3.33;;;;;;;;;;4884327;29;20468;-78
2023/08/29 08:20:39;;;;;;;7.68;3.22;;;;;;;;;;4883623;29;20041;-78
2023/08/29 08:23:12;;;;;;;6.90;2.97;;;;;;;;;;4900197;29;20048;-78
2023/08/29 08:25:44;;;;;;;6.45;2.88;;;;;;;;;;4899900;29;20057;-78
2023/08/29 08:28:14;;;;;;;6.80;3.05;;;;;;;;;;4900003;29;20378;-78
2023/08/29 08:30:45;;;;;;;11.25;3.33;;;;;;;;;;4900008;29;20056;-78
2023/08/29 08:33:15;;;;;;;6.72;2.88;;;;;;;;;;4867878;29;20408;-78
2023/08/29 08:35:47;;;;;;;8.95;2.75;;;;;;;;;;4883843;29;20049;-78
2023/08/29 08:38:26;;;;;;;7.00;3.10;;;;;;;;;;4899939;29;20053;-78
2023/08/29 08:40:58;;;;;;;5.75;2.47;;;;;;;;;;4900434;29;20063;-78
2023/08/29 08:43:32;;;;;;;8.05;3.13;;;;;;;;;;4883477;29;20075;-79
2023/08/29 08:46:05;;;;;;;6.40;2.75;;;;;;;;;;4897611;29;20056;-78
2023/08/29 08:48:36;;;;;;;8.52;3.20;;;;;;;;;;4900443;29;20392;-78
2023/08/29 08:51:10;;;;;;;7.22;2.90;;;;;;;;;;4881882;29;20488;-78
2023/08/29 08:53:41;;;;;;;7.82;2.83;;;;;;;;;;4899784;29;20140;-78
2023/08/29 08:56:12;;;;;;;7.10;2.50;;;;;;;;;;4899557;29;20163;-79
2023/08/29 08:58:42;;;;;;;7.82;3.78;;;;;;;;;;4904391;29;20440;-78
2023/08/29 09:01:14;;;;;;;6.25;2.70;;;;;;;;;;4886219;29;20060;-78
2023/08/29 09:03:47;;;;;;;8.70;3.03;;;;;;;;;;4917831;29;20032;-76
2023/08/29 09:06:19;;;;;;;7.95;3.28;;;;;;;;;;4922329;29;20044;-76
2023/08/29 09:08:49;;;;;;;8.55;3.00;;;;;;;;;;4897663;29;20071;-78
2023/08/29 09:11:19;;;;;;;8.43;3.20;;;;;;;;;;4899422;29;20059;-78
2023/08/29 09:13:52;;;;;;;7.15;2.75;;;;;;;;;;4899124;29;20045;-79
2023/08/29 09:16:26;;;;;;;5.07;2.45;;;;;;;;;;4899654;29;20061;-79
2023/08/29 09:18:57;;;;;;;8.95;2.72;;;;;;;;;;4899134;29;20365;-79
2023/08/29 09:21:27;;;;;;;6.13;2.65;;;;;;;;;;4881744;29;20048;-79
2023/08/29 09:23:58;;;;;;;6.13;2.60;;;;;;;;;;4898564;29;20041;-79
2023/08/29 09:26:32;;;;;;;6.18;2.85;;;;;;;;;;4898557;29;20499;-79
2023/08/29 09:29:17;;;;;;;7.28;3.22;;;;;;;;;;4899367;29;20053;-79
2023/08/29 09:31:49;;;;;;;7.70;2.83;;;;;;;;;;4898949;29;20063;-79
2023/08/29 09:34:30;;;;;;;14.30;6.53;;;;;;;;;;4898542;29;20053;-79
2023/08/29 09:37:06;;;;;;;9.93;3.38;;;;;;;;;;4899092;29;20124;-79
2023/08/29 09:39:38;;;;;;;8.02;3.60;;;;;;;;;;4896751;29;20048;-80
2023/08/29 09:42:11;;;;;;;9.23;3.60;;;;;;;;;;4898724;29;20511;-79
2023/08/29 09:44:42;;;;;;;7.38;3.08;;;;;;;;;;4881121;29;20536;-79
2023/08/29 09:47:13;;;;;;;6.30;2.72;;;;;;;;;;4874404;29;21230;-79
2023/08/29 09:49:50;;;;;;;9.27;3.40;;;;;;;;;;4892455;29;20090;-78
2023/08/29 09:52:23;;;;;;;10.07;3.70;;;;;;;;;;4869616;29;20076;-79
2023/08/29 09:54:56;;;;;;;8.88;4.07;;;;;;;;;;4885880;29;20055;-79
2023/08/29 09:57:33;;;;;;;9.35;3.88;;;;;;;;;;4880631;29;20408;-79
2023/08/29 10:00:09;;;;;;;8.32;3.83;;;;;;;;;;4864125;29;20170;-78
2023/08/29 10:02:43;;;;;;;9.32;3.78;;;;;;;;;;4891716;29;20049;-79
2023/08/29 10:05:20;;;;;;;10.70;3.75;;;;;;;;;;4863188;29;20056;-79
2023/08/29 10:07:55;;;;;;;13.18;3.90;;;;;;;;;;4879742;29;20045;-79
2023/08/29 10:10:29;;;;;;;10.32;4.40;;;;;;;;;;4879385;29;20508;-78
2023/08/29 10:13:02;;;;;;;9.75;4.65;;;;;;;;;;4862645;29;20061;-79
2023/08/29 10:15:35;;;;;;;10.35;3.92;;;;;;;;;;4879382;29;20045;-78
2023/08/29 10:18:08;;;;;;;8.93;3.97;;;;;;;;;;4879446;29;20401;-79
2023/08/29 10:20:45;;;;;;;11.10;3.83;;;;;;;;;;4879798;29;20057;-79
2023/08/29 10:23:17;;;;;;;10.68;4.00;;;;;;;;;;4879615;29;20052;-80
2023/08/29 10:25:53;;;;;;;11.25;4.72;;;;;;;;;;4879931;29;20477;-79
2023/08/29 10:28:27;;;;;;;9.55;3.60;;;;;;;;;;4878435;29;20052;-79
2023/08/29 10:31:05;;;;;;;7.70;3.60;;;;;;;;;;4877740;29;20053;-79
2023/08/29 10:33:39;;;;;;;10.18;3.65;;;;;;;;;;4883631;29;20049;-79
2023/08/29 10:36:13;;;;;;;11.07;3.90;;;;;;;;;;4896920;29;20055;-79
2023/08/29 10:38:50;;;;;;;15.70;4.22;;;;;;;;;;4896934;29;20048;-79
2023/08/29 10:41:22;;;;;;;17.33;3.38;;;;;;;;;;4887280;29;20443;-80
2023/08/29 10:44:30;;;;;;;12.50;3.63;;;;;;;;;;4878079;29;20067;-79
2023/08/29 10:47:26;;;;;;;12.38;4.25;;;;;;;;;;4882046;29;20548;-78
2023/08/29 10:50:05;;;;;;;19.33;5.30;;;;;;;;;;4887529;29;20497;-81
2023/08/29 10:52:40;;;;;;;15.93;4.22;;;;;;;;;;4869129;29;20049;-79
2023/08/29 10:55:23;;;;;;;12.93;5.38;;;;;;;;;;4887838;29;20045;-78
2023/08/29 10:57:58;;;;;;;11.88;4.80;;;;;;;;;;4887629;29;20044;-79
2023/08/29 11:03:48;;;;;;;8.05;3.40;;;;;;;;;;4886351;29;20049;-79
2023/08/29 11:06:23;;;;;;;11.38;3.20;;;;;;;;;;4877812;29;20397;-79
2023/08/29 11:09:16;;;;;;;11.70;6.10;;;;;;;;;;4880764;29;20063;-80
2023/08/29 11:12:07;;;;;;;8.52;3.33;;;;;;;;;;4884607;29;20071;-79
2023/08/29 11:14:56;;;;;;;6.25;2.67;;;;;;;;;;4885266;29;20402;-79
2023/08/29 11:17:28;;;;;;;9.63;3.13;;;;;;;;;;4881510;29;20387;-80
2023/08/29 11:20:06;;;;;;;8.10;2.67;;;;;;;;;;4879054;29;20057;-79
2023/08/29 11:22:38;;;;;;;6.93;2.47;;;;;;;;;;4881546;29;20045;-78
2023/08/29 11:25:09;;;;;;;13.07;5.75;;;;;;;;;;4873425;29;20049;-79
2023/08/29 11:27:40;;;;;;;7.18;2.83;;;;;;;;;;4889389;29;20057;-79
2023/08/29 11:30:13;;;;;;;5.55;2.53;;;;;;;;;;4864845;29;20524;-80
2023/08/29 11:33:04;;;;;;;7.45;2.72;;;;;;;;;;4881021;29;20048;-79
2023/08/29 11:35:35;;;;;;;5.75;2.53;;;;;;;;;;4881600;29;20515;-80
2023/08/29 11:38:09;;;;;;;7.85;3.22;;;;;;;;;;4865583;29;20056;-82
2023/08/29 11:40:43;;;;;;;6.35;2.88;;;;;;;;;;4864733;29;20484;-83
2023/08/29 11:43:37;;;;;;;12.75;2.55;;;;;;;;;;4866279;29;20060;-83
2023/08/29 11:46:33;;;;;;;4.30;1.70;;;;;;;;;;4874297;29;20373;-87
2023/08/29 11:49:16;;;;;;;5.78;2.67;;;;;;;;;;4897848;29;20044;-85
2023/08/29 11:51:48;;;;;;;5.18;2.45;;;;;;;;;;4873016;29;20044;-85
2023/08/29 11:55:01;;;;;;;5.03;1.95;;;;;;;;;;4889706;29;20052;-83
2023/08/29 11:57:33;;;;;;;3.50;1.55;;;;;;;;;;4888833;29;20045;-83
2023/08/29 12:00:12;;;;;;;6.30;2.15;;;;;;;;;;4889137;29;20051;-83
2023/08/29 12:02:48;;;;;;;6.35;2.13;;;;;;;;;;4872772;29;20048;-83
2023/08/29 12:05:23;;;;;;;5.80;2.42;;;;;;;;;;4888770;29;20044;-83
2023/08/29 12:07:55;;;;;;;4.13;1.80;;;;;;;;;;4878520;29;20056;-84
2023/08/29 12:10:29;;;;;;;5.38;1.85;;;;;;;;;;4864407;29;20048;-84
2023/08/29 12:13:12;;;;;;;6.05;1.95;;;;;;;;;;4879997;29;20064;-83
2023/08/29 12:15:47;;;;;;;5.13;1.90;;;;;;;;;;4877822;29;20052;-83
2023/08/29 12:18:26;;;;;;;5.25;2.25;;;;;;;;;;4881388;29;20416;-83
2023/08/29 12:21:20;;;;;;;4.57;1.38;;;;;;;;;;4881071;29;20067;-83
2023/08/29 12:23:52;;;;;;;5.53;1.90;;;;;;;;;;4890378;29;20041;-82
2023/08/29 12:26:24;;;;;;;9.18;2.20;;;;;;;;;;4863784;29;20501;-83
2023/08/29 12:28:55;;;;;;;4.80;1.80;;;;;;;;;;4890537;29;20057;-82
2023/08/29 12:31:26;;;;;;;6.20;1.95;;;;;;;;;;4866200;29;20060;-84
2023/08/29 12:33:56;;;;;;;3.22;1.58;;;;;;;;;;4879788;29;20552;-81
2023/08/29 12:36:28;;;;;;;3.92;1.80;;;;;;;;;;4898731;29;20040;-82
2023/08/29 12:38:59;;;;;;;4.95;1.52;;;;;;;;;;4882733;29;20438;-83
2023/08/29 12:41:32;;;;;;;4.03;1.63;;;;;;;;;;4899025;29;20127;-82
2023/08/29 12:44:03;;;;;;;6.32;2.53;;;;;;;;;;4883965;29;20053;-82
2023/08/29 12:46:35;;;;;;;4.13;2.08;;;;;;;;;;4882063;29;20416;-83
2023/08/29 12:49:05;;;;;;;5.15;1.98;;;;;;;;;;4881509;29;20067;-81
2023/08/29 12:51:39;;;;;;;6.47;2.10;;;;;;;;;;4896015;29;20052;-81
2023/08/29 12:54:10;;;;;;;6.85;2.20;;;;;;;;;;4880708;29;20067;-81
2023/08/29 12:56:44;;;;;;;31.40;11.27;;;;;;;;;;4879694;29;20045;-81
2023/08/29 12:59:15;;;;;;;11.20;3.78;;;;;;;;;;4862109;29;20060;-82
2023/08/29 13:01:48;;;;;;;9.13;5.13;;;;;;;;;;4881206;29;20037;-81
2023/08/29 13:04:18;;;;;;;12.23;5.47;;;;;;;;;;4888390;29;20504;-83
2023/08/29 13:06:49;;;;;;;5.50;3.33;;;;;;;;;;4894681;29;20052;-83
2023/08/29 13:09:21;;;;;;;7.60;3.10;;;;;;;;;;4896671;29;20056;-82
2023/08/29 13:12:07;;;;;;;6.93;3.05;;;;;;;;;;4904783;29;20029;-83
2023/08/29 13:14:38;;;;;;;10.10;3.13;;;;;;;;;;4888229;29;20408;-83
2023/08/29 13:17:12;;;;;;;13.13;4.28;;;;;;;;;;4903884;29;20041;-82
2023/08/29 13:19:43;;;;;;;4.78;2.10;;;;;;;;;;4888280;29;20049;-81
2023/08/29 13:22:14;;;;;;;5.35;2.35;;;;;;;;;;4880893;29;20076;-82
2023/08/29 13:24:45;;;;;;;;;;;;;;;;;;4862284;29;20057;-82
2023/08/29 13:27:16;;;;;;;6.13;1.42;;;;;;;;;;4861102;29;19938;-82
2023/08/29 13:29:52;;;;;;;4.90;1.73;;;;;;;;;;4879082;29;20061;-82
2023/08/29 13:32:24;;;;;;;4.90;1.48;;;;;;;;;;4863909;29;20072;-81
2023/08/29 13:45:28;;;;;;;7.43;2.17;;;;;;;;;;5174927;23;20059;-83
2023/08/29 13:48:03;;;;;;;7.38;2.53;;;;;;;;;;4921084;29;20055;-82
2023/08/29 13:55:27;;;;;;;4.38;1.90;;;;;;;;;;4940798;29;20035;-81
2023/08/29 14:28:29;;;;;;;4.13;1.73;;;;;;;;;;4936920;29;20047;-83
2023/08/29 14:34:31;;;;;;;5.82;2.63;;;;;;;;;;4945258;29;19925;-80
2023/08/29 14:37:03;;;;;;;6.38;2.22;;;;;;;;;;4956133;29;20039;-80
2023/08/29 14:40:33;;;;;;;4.63;1.70;;;;;;;;;;4937157;29;20039;-82
2023/08/29 14:43:04;;;;;;;9.48;4.85;;;;;;;;;;4955661;29;20039;-81
2023/08/29 14:45:41;;;;;;;18.35;8.40;;;;;;;;;;4955854;29;20498;-81
2023/08/29 14:48:14;;;;;;;5.43;2.03;;;;;;;;;;4937523;28;20055;-81
2023/08/29 14:50:45;;;;;;;4.18;1.90;;;;;;;;;;4959467;29;20047;-80
2023/08/29 14:57:39;;;;;;;5.55;2.03;;;;;;;;;;4959509;28;20047;-82
2023/08/29 15:00:11;;;;;;;6.25;1.98;;;;;;;;;;4926469;29;20051;-80
2023/08/29 15:07:14;;;;;;;7.55;2.88;;;;;;;;;;4942262;29;20332;-81
2023/08/29 15:09:49;;;;;;;2.97;1.73;;;;;;;;;;4939419;29;20051;-82
2023/08/29 15:12:24;;;;;;;11.23;2.00;;;;;;;;;;4923431;29;20048;-81
2023/08/29 15:14:55;;;;;;;3.58;1.83;;;;;;;;;;4940447;29;20054;-84
2023/08/29 15:17:30;;;;;;;4.63;1.90;;;;;;;;;;4926312;29;20506;-82
2023/08/29 15:20:09;;;;;;;4.40;2.20;;;;;;;;;;4922865;29;20059;-83
2023/08/29 15:22:43;;;;;;;4.00;1.88;;;;;;;;;;4939154;29;20386;-83
2023/08/29 15:25:15;;;;;;;6.40;1.92;;;;;;;;;;4939579;29;20039;-81
2023/08/29 15:31:49;;;;;;;5.10;1.83;;;;;;;;;;4939310;29;20036;-81
2023/08/29 15:34:22;;;;;;;5.60;2.33;;;;;;;;;;4939633;29;20048;-83
2023/08/29 15:37:00;;;;;;;5.18;2.03;;;;;;;;;;4928309;29;20054;-82
2023/08/29 15:39:34;;;;;;;2.92;1.40;;;;;;;;;;4942833;29;20050;-83
2023/08/29 15:42:07;;;;;;;4.47;1.90;;;;;;;;;;4959346;29;20471;-82
2023/08/29 15:44:39;;;;;;;8.05;2.10;;;;;;;;;;4942545;29;20462;-81
2023/08/29 15:47:11;;;;;;;5.88;1.85;;;;;;;;;;4959054;29;20470;-82
2023/08/29 15:49:46;;;;;;;4.68;1.60;;;;;;;;;;4958970;29;20051;-86
2023/08/29 15:52:17;;;;;;;8.52;2.17;;;;;;;;;;4925424;29;20391;-82
2023/08/29 15:54:52;;;;;;;4.75;1.70;;;;;;;;;;4941228;29;20058;-83
2023/08/29 15:57:27;;;;;;;6.53;2.60;;;;;;;;;;4959357;29;20035;-82
2023/08/29 16:00:00;;;;;;;5.63;2.17;;;;;;;;;;4957973;28;20051;-82
2023/08/29 16:02:34;;;;;;;7.10;2.08;;;;;;;;;;4961786;28;20054;-82
2023/08/29 16:05:09;;;;;;;6.13;2.03;;;;;;;;;;4941489;29;20043;-82
2023/08/29 16:07:45;;;;;;;7.43;4.40;;;;;;;;;;4941989;29;20043;-82
2023/08/29 16:10:21;;;;;;;6.53;2.13;;;;;;;;;;4939350;29;20398;-81
2023/08/29 16:12:55;;;;;;;5.60;1.95;;;;;;;;;;4957282;29;20378;-82
2023/08/29 16:29:17;;;;;;;3.78;1.92;;;;;;;;;;5048975;23;20067;-80
2023/08/29 16:36:02;;;;;;;3.55;1.63;;;;;;;;;;4937390;29;20052;-83
2023/08/29 16:38:59;;;;;;;3.55;1.77;;;;;;;;;;4921144;29;20055;-81
2023/08/29 16:42:20;;;;;;;4.05;1.80;;;;;;;;;;4938110;29;20036;-82